Sayre, Alabama
Current Conditions -  °F | °C
As of 1:53 PM on Wednesday 28 Jan 2015 (Local Time) from KBHM Reporting Station
Few Clouds Few Clouds  
Wind Chill: 56°   Ceiling: Unl
Heat Index: 56°   Visibility: 10mi
Dew Point: 24°   Wind: 7mph
Humidity: 29%   Direction: 50°NE
Pressure: 30.25"   Gusts: NA
Location:  33.71°N, 86.97°W
Report Text: KBHM 281953Z 05006KT 10SM FEW250 13/M04 A3025 RMK AO2 SLP244 T01331044
Loading
Personal Weather Stations






























Interactive Weather Map New forecast layout! Learn more

10-Day Weather Forecast

Advertisements
Track Severe Weather on mobile